sensor_id;sensor_type;location;lat;lon;timestamp;P1;durP1;ratioP1;P2;durP2;ratioP2
16139;SDS011;8175;49.326;12.690;2023-12-20T00:00:05;6.57;;;5.00;;
16139;SDS011;8175;49.326;12.690;2023-12-20T00:02:31;5.43;;;4.63;;
16139;SDS011;8175;49.326;12.690;2023-12-20T00:04:56;7.50;;;5.63;;
16139;SDS011;8175;49.326;12.690;2023-12-20T00:07:22;7.33;;;5.07;;
16139;SDS011;8175;49.326;12.690;2023-12-20T00:09:48;6.90;;;5.50;;
16139;SDS011;8175;49.326;12.690;2023-12-20T00:12:13;6.83;;;5.33;;
16139;SDS011;8175;49.326;12.690;2023-12-20T00:14:39;5.73;;;5.13;;
16139;SDS011;8175;49.326;12.690;2023-12-20T00:17:04;6.13;;;5.00;;
16139;SDS011;8175;49.326;12.690;2023-12-20T00:19:30;5.90;;;5.20;;
16139;SDS011;8175;49.326;12.690;2023-12-20T00:21:56;7.10;;;5.50;;
16139;SDS011;8175;49.326;12.690;2023-12-20T00:24:21;5.57;;;4.63;;
16139;SDS011;8175;49.326;12.690;2023-12-20T00:26:47;7.30;;;5.27;;
16139;SDS011;8175;49.326;12.690;2023-12-20T00:29:13;6.40;;;5.23;;
16139;SDS011;8175;49.326;12.690;2023-12-20T00:31:38;7.60;;;6.30;;
16139;SDS011;8175;49.326;12.690;2023-12-20T00:34:04;6.23;;;5.07;;
16139;SDS011;8175;49.326;12.690;2023-12-20T00:36:29;6.03;;;5.30;;
16139;SDS011;8175;49.326;12.690;2023-12-20T00:38:55;6.00;;;4.60;;
16139;SDS011;8175;49.326;12.690;2023-12-20T00:41:21;6.60;;;5.20;;
16139;SDS011;8175;49.326;12.690;2023-12-20T00:43:46;6.53;;;5.33;;
16139;SDS011;8175;49.326;12.690;2023-12-20T00:46:12;7.83;;;5.83;;
16139;SDS011;8175;49.326;12.690;2023-12-20T00:48:37;8.13;;;5.67;;
16139;SDS011;8175;49.326;12.690;2023-12-20T00:51:03;7.93;;;5.83;;
16139;SDS011;8175;49.326;12.690;2023-12-20T00:53:29;7.53;;;5.90;;
16139;SDS011;8175;49.326;12.690;2023-12-20T00:55:54;6.83;;;5.73;;
16139;SDS011;8175;49.326;12.690;2023-12-20T00:58:20;8.67;;;6.23;;
16139;SDS011;8175;49.326;12.690;2023-12-20T01:00:46;9.37;;;6.20;;
16139;SDS011;8175;49.326;12.690;2023-12-20T01:03:12;6.17;;;5.53;;
16139;SDS011;8175;49.326;12.690;2023-12-20T01:05:37;8.30;;;6.00;;
16139;SDS011;8175;49.326;12.690;2023-12-20T01:08:03;7.53;;;6.13;;
16139;SDS011;8175;49.326;12.690;2023-12-20T01:10:29;7.23;;;5.63;;
16139;SDS011;8175;49.326;12.690;2023-12-20T01:12:55;9.23;;;6.27;;
16139;SDS011;8175;49.326;12.690;2023-12-20T01:15:20;7.33;;;5.77;;
16139;SDS011;8175;49.326;12.690;2023-12-20T01:17:46;7.27;;;6.27;;
16139;SDS011;8175;49.326;12.690;2023-12-20T01:20:12;6.93;;;5.67;;
16139;SDS011;8175;49.326;12.690;2023-12-20T01:22:38;10.30;;;6.73;;
16139;SDS011;8175;49.326;12.690;2023-12-20T01:25:04;8.33;;;6.17;;
16139;SDS011;8175;49.326;12.690;2023-12-20T01:27:30;8.67;;;6.90;;
16139;SDS011;8175;49.326;12.690;2023-12-20T01:29:56;7.93;;;6.97;;
16139;SDS011;8175;49.326;12.690;2023-12-20T01:32:22;9.27;;;6.53;;
16139;SDS011;8175;49.326;12.690;2023-12-20T01:34:47;10.63;;;7.10;;
16139;SDS011;8175;49.326;12.690;2023-12-20T01:37:13;8.83;;;7.23;;
16139;SDS011;8175;49.326;12.690;2023-12-20T01:39:39;9.37;;;7.47;;
16139;SDS011;8175;49.326;12.690;2023-12-20T01:42:05;10.60;;;7.73;;
16139;SDS011;8175;49.326;12.690;2023-12-20T01:44:30;11.90;;;8.40;;
16139;SDS011;8175;49.326;12.690;2023-12-20T01:46:56;10.03;;;8.60;;
16139;SDS011;8175;49.326;12.690;2023-12-20T01:49:22;10.20;;;7.63;;
16139;SDS011;8175;49.326;12.690;2023-12-20T01:51:49;9.77;;;7.97;;
16139;SDS011;8175;49.326;12.690;2023-12-20T01:54:15;12.03;;;8.17;;
16139;SDS011;8175;49.326;12.690;2023-12-20T01:56:41;10.90;;;8.80;;
16139;SDS011;8175;49.326;12.690;2023-12-20T01:59:07;12.87;;;9.10;;
16139;SDS011;8175;49.326;12.690;2023-12-20T02:01:34;11.60;;;9.50;;
16139;SDS011;8175;49.326;12.690;2023-12-20T02:04:00;11.60;;;9.37;;
16139;SDS011;8175;49.326;12.690;2023-12-20T02:06:28;13.40;;;9.80;;
16139;SDS011;8175;49.326;12.690;2023-12-20T02:08:57;14.10;;;9.57;;
16139;SDS011;8175;49.326;12.690;2023-12-20T02:11:23;13.87;;;10.03;;
16139;SDS011;8175;49.326;12.690;2023-12-20T02:13:50;12.77;;;10.23;;
16139;SDS011;8175;49.326;12.690;2023-12-20T02:16:15;13.43;;;9.90;;
16139;SDS011;8175;49.326;12.690;2023-12-20T02:18:42;13.93;;;9.97;;
16139;SDS011;8175;49.326;12.690;2023-12-20T02:21:09;14.50;;;10.10;;
16139;SDS011;8175;49.326;12.690;2023-12-20T02:23:35;12.57;;;9.57;;
16139;SDS011;8175;49.326;12.690;2023-12-20T02:26:01;11.53;;;9.53;;
16139;SDS011;8175;49.326;12.690;2023-12-20T02:28:27;12.00;;;9.67;;
16139;SDS011;8175;49.326;12.690;2023-12-20T02:30:54;13.77;;;10.60;;
16139;SDS011;8175;49.326;12.690;2023-12-20T02:33:19;13.23;;;10.90;;
16139;SDS011;8175;49.326;12.690;2023-12-20T02:35:45;16.03;;;11.33;;
16139;SDS011;8175;49.326;12.690;2023-12-20T02:38:11;14.60;;;10.20;;
16139;SDS011;8175;49.326;12.690;2023-12-20T02:40:36;13.70;;;10.77;;
16139;SDS011;8175;49.326;12.690;2023-12-20T02:43:02;16.30;;;10.43;;
16139;SDS011;8175;49.326;12.690;2023-12-20T02:45:28;13.57;;;10.73;;
16139;SDS011;8175;49.326;12.690;2023-12-20T02:47:53;14.43;;;11.00;;
16139;SDS011;8175;49.326;12.690;2023-12-20T02:50:20;15.03;;;11.90;;
16139;SDS011;8175;49.326;12.690;2023-12-20T02:52:45;16.50;;;12.03;;
16139;SDS011;8175;49.326;12.690;2023-12-20T02:55:11;15.37;;;11.70;;
16139;SDS011;8175;49.326;12.690;2023-12-20T02:57:37;14.17;;;11.43;;
16139;SDS011;8175;49.326;12.690;2023-12-20T03:00:06;15.73;;;12.17;;
16139;SDS011;8175;49.326;12.690;2023-12-20T03:02:38;16.80;;;12.37;;
16139;SDS011;8175;49.326;12.690;2023-12-20T03:05:04;16.93;;;12.83;;
16139;SDS011;8175;49.326;12.690;2023-12-20T03:07:30;15.97;;;11.07;;
16139;SDS011;8175;49.326;12.690;2023-12-20T03:09:56;11.27;;;8.97;;
16139;SDS011;8175;49.326;12.690;2023-12-20T03:12:21;14.33;;;10.80;;
16139;SDS011;8175;49.326;12.690;2023-12-20T03:14:48;13.43;;;10.60;;
16139;SDS011;8175;49.326;12.690;2023-12-20T03:17:14;12.37;;;9.37;;
16139;SDS011;8175;49.326;12.690;2023-12-20T03:19:40;15.30;;;11.03;;
16139;SDS011;8175;49.326;12.690;2023-12-20T03:22:06;15.33;;;11.60;;
16139;SDS011;8175;49.326;12.690;2023-12-20T03:24:31;13.07;;;11.30;;
16139;SDS011;8175;49.326;12.690;2023-12-20T03:26:57;13.77;;;10.80;;
16139;SDS011;8175;49.326;12.690;2023-12-20T03:29:23;14.13;;;10.67;;
16139;SDS011;8175;49.326;12.690;2023-12-20T03:31:48;14.77;;;10.83;;
16139;SDS011;8175;49.326;12.690;2023-12-20T03:34:14;13.40;;;11.40;;
16139;SDS011;8175;49.326;12.690;2023-12-20T03:36:39;15.53;;;10.03;;
16139;SDS011;8175;49.326;12.690;2023-12-20T03:39:05;14.50;;;11.73;;
16139;SDS011;8175;49.326;12.690;2023-12-20T03:41:31;14.57;;;10.80;;
16139;SDS011;8175;49.326;12.690;2023-12-20T03:43:56;14.60;;;10.90;;
16139;SDS011;8175;49.326;12.690;2023-12-20T03:46:22;13.67;;;11.23;;
16139;SDS011;8175;49.326;12.690;2023-12-20T03:48:47;14.00;;;10.97;;
16139;SDS011;8175;49.326;12.690;2023-12-20T03:51:13;14.27;;;11.30;;
16139;SDS011;8175;49.326;12.690;2023-12-20T03:53:38;15.37;;;12.13;;
16139;SDS011;8175;49.326;12.690;2023-12-20T03:56:05;13.47;;;10.83;;
16139;SDS011;8175;49.326;12.690;2023-12-20T03:58:31;15.23;;;11.07;;
16139;SDS011;8175;49.326;12.690;2023-12-20T04:00:57;16.53;;;11.83;;
16139;SDS011;8175;49.326;12.690;2023-12-20T04:03:22;14.47;;;11.30;;
16139;SDS011;8175;49.326;12.690;2023-12-20T04:05:48;13.93;;;10.20;;
16139;SDS011;8175;49.326;12.690;2023-12-20T04:08:13;13.07;;;10.67;;
16139;SDS011;8175;49.326;12.690;2023-12-20T04:10:39;11.73;;;8.97;;
16139;SDS011;8175;49.326;12.690;2023-12-20T04:13:05;12.47;;;9.57;;
16139;SDS011;8175;49.326;12.690;2023-12-20T04:15:30;12.17;;;9.37;;
16139;SDS011;8175;49.326;12.690;2023-12-20T04:17:56;12.03;;;9.43;;
16139;SDS011;8175;49.326;12.690;2023-12-20T04:20:21;11.70;;;8.77;;
16139;SDS011;8175;49.326;12.690;2023-12-20T04:22:47;11.30;;;8.20;;
16139;SDS011;8175;49.326;12.690;2023-12-20T04:25:13;9.60;;;8.47;;
16139;SDS011;8175;49.326;12.690;2023-12-20T04:27:38;12.33;;;8.93;;
16139;SDS011;8175;49.326;12.690;2023-12-20T04:30:04;12.10;;;9.33;;
16139;SDS011;8175;49.326;12.690;2023-12-20T04:32:30;13.97;;;8.97;;
16139;SDS011;8175;49.326;12.690;2023-12-20T04:34:56;12.03;;;8.10;;
16139;SDS011;8175;49.326;12.690;2023-12-20T04:37:22;11.10;;;8.20;;
16139;SDS011;8175;49.326;12.690;2023-12-20T04:39:48;10.60;;;8.03;;
16139;SDS011;8175;49.326;12.690;2023-12-20T04:42:13;13.53;;;9.07;;
16139;SDS011;8175;49.326;12.690;2023-12-20T04:44:39;10.70;;;7.87;;
16139;SDS011;8175;49.326;12.690;2023-12-20T04:47:04;11.23;;;8.10;;
16139;SDS011;8175;49.326;12.690;2023-12-20T04:49:30;9.67;;;7.10;;
16139;SDS011;8175;49.326;12.690;2023-12-20T04:51:56;11.07;;;8.17;;
16139;SDS011;8175;49.326;12.690;2023-12-20T04:54:21;11.30;;;7.60;;
16139;SDS011;8175;49.326;12.690;2023-12-20T04:56:47;11.10;;;7.63;;
16139;SDS011;8175;49.326;12.690;2023-12-20T04:59:12;8.70;;;7.33;;
16139;SDS011;8175;49.326;12.690;2023-12-20T05:01:38;9.47;;;7.03;;
16139;SDS011;8175;49.326;12.690;2023-12-20T05:04:04;10.50;;;7.43;;
16139;SDS011;8175;49.326;12.690;2023-12-20T05:06:30;11.23;;;7.07;;
16139;SDS011;8175;49.326;12.690;2023-12-20T05:08:55;10.03;;;8.53;;
16139;SDS011;8175;49.326;12.690;2023-12-20T05:11:21;9.90;;;7.40;;
16139;SDS011;8175;49.326;12.690;2023-12-20T05:13:47;8.80;;;6.73;;
16139;SDS011;8175;49.326;12.690;2023-12-20T05:16:12;6.93;;;5.33;;
16139;SDS011;8175;49.326;12.690;2023-12-20T05:18:39;7.33;;;5.80;;
16139;SDS011;8175;49.326;12.690;2023-12-20T05:21:05;7.93;;;5.60;;
16139;SDS011;8175;49.326;12.690;2023-12-20T05:23:30;8.27;;;5.87;;
16139;SDS011;8175;49.326;12.690;2023-12-20T05:25:56;8.00;;;6.50;;
16139;SDS011;8175;49.326;12.690;2023-12-20T05:28:22;7.20;;;5.57;;
16139;SDS011;8175;49.326;12.690;2023-12-20T05:30:47;7.50;;;5.27;;
16139;SDS011;8175;49.326;12.690;2023-12-20T05:33:13;6.50;;;4.63;;
16139;SDS011;8175;49.326;12.690;2023-12-20T05:35:39;8.50;;;5.17;;
16139;SDS011;8175;49.326;12.690;2023-12-20T05:38:05;24.47;;;14.73;;
16139;SDS011;8175;49.326;12.690;2023-12-20T05:40:31;7.87;;;5.20;;
16139;SDS011;8175;49.326;12.690;2023-12-20T05:42:56;5.17;;;4.33;;
16139;SDS011;8175;49.326;12.690;2023-12-20T05:45:22;4.63;;;3.93;;
16139;SDS011;8175;49.326;12.690;2023-12-20T05:47:47;3.87;;;3.40;;
16139;SDS011;8175;49.326;12.690;2023-12-20T05:50:13;4.30;;;3.60;;
16139;SDS011;8175;49.326;12.690;2023-12-20T05:52:39;4.30;;;3.60;;
16139;SDS011;8175;49.326;12.690;2023-12-20T05:55:04;2.97;;;2.63;;
16139;SDS011;8175;49.326;12.690;2023-12-20T05:57:30;3.80;;;2.63;;
16139;SDS011;8175;49.326;12.690;2023-12-20T05:59:56;3.23;;;2.13;;
16139;SDS011;8175;49.326;12.690;2023-12-20T06:02:21;4.80;;;2.40;;
16139;SDS011;8175;49.326;12.690;2023-12-20T06:04:47;3.00;;;2.40;;
16139;SDS011;8175;49.326;12.690;2023-12-20T06:07:13;2.40;;;2.20;;
16139;SDS011;8175;49.326;12.690;2023-12-20T06:09:39;2.53;;;1.83;;
16139;SDS011;8175;49.326;12.690;2023-12-20T06:12:05;2.50;;;2.30;;
16139;SDS011;8175;49.326;12.690;2023-12-20T06:14:31;2.60;;;2.10;;
16139;SDS011;8175;49.326;12.690;2023-12-20T06:16:57;3.00;;;2.60;;
16139;SDS011;8175;49.326;12.690;2023-12-20T06:19:23;3.77;;;2.40;;
16139;SDS011;8175;49.326;12.690;2023-12-20T06:21:48;3.27;;;2.83;;
16139;SDS011;8175;49.326;12.690;2023-12-20T06:24:14;2.53;;;2.00;;
16139;SDS011;8175;49.326;12.690;2023-12-20T06:26:39;9.20;;;8.23;;
16139;SDS011;8175;49.326;12.690;2023-12-20T06:29:05;6.80;;;6.17;;
16139;SDS011;8175;49.326;12.690;2023-12-20T06:31:31;3.80;;;3.47;;
16139;SDS011;8175;49.326;12.690;2023-12-20T06:33:58;11.77;;;10.63;;
16139;SDS011;8175;49.326;12.690;2023-12-20T06:36:25;4.17;;;3.77;;
16139;SDS011;8175;49.326;12.690;2023-12-20T06:38:51;5.00;;;3.00;;
16139;SDS011;8175;49.326;12.690;2023-12-20T06:41:17;15.30;;;11.57;;
16139;SDS011;8175;49.326;12.690;2023-12-20T06:43:43;3.90;;;3.07;;
16139;SDS011;8175;49.326;12.690;2023-12-20T06:46:11;2.77;;;2.47;;
16139;SDS011;8175;49.326;12.690;2023-12-20T06:48:38;2.93;;;2.70;;
16139;SDS011;8175;49.326;12.690;2023-12-20T06:51:04;3.13;;;2.43;;
16139;SDS011;8175;49.326;12.690;2023-12-20T06:53:30;3.00;;;2.70;;
16139;SDS011;8175;49.326;12.690;2023-12-20T06:55:56;2.60;;;2.40;;
16139;SDS011;8175;49.326;12.690;2023-12-20T06:58:22;3.73;;;3.20;;
16139;SDS011;8175;49.326;12.690;2023-12-20T07:00:48;4.70;;;3.80;;
16139;SDS011;8175;49.326;12.690;2023-12-20T07:03:14;4.43;;;4.03;;
16139;SDS011;8175;49.326;12.690;2023-12-20T07:05:39;3.10;;;2.53;;
16139;SDS011;8175;49.326;12.690;2023-12-20T07:08:06;3.10;;;2.80;;
16139;SDS011;8175;49.326;12.690;2023-12-20T07:10:31;2.53;;;2.33;;
16139;SDS011;8175;49.326;12.690;2023-12-20T07:12:57;1.53;;;1.40;;
16139;SDS011;8175;49.326;12.690;2023-12-20T07:15:23;1.93;;;1.83;;
16139;SDS011;8175;49.326;12.690;2023-12-20T07:17:49;3.33;;;3.03;;
16139;SDS011;8175;49.326;12.690;2023-12-20T07:20:14;2.67;;;2.17;;
16139;SDS011;8175;49.326;12.690;2023-12-20T07:22:40;2.83;;;2.63;;
16139;SDS011;8175;49.326;12.690;2023-12-20T07:25:06;2.23;;;2.03;;
16139;SDS011;8175;49.326;12.690;2023-12-20T07:27:32;6.53;;;4.73;;
16139;SDS011;8175;49.326;12.690;2023-12-20T07:29:57;2.50;;;2.30;;
16139;SDS011;8175;49.326;12.690;2023-12-20T07:32:23;2.57;;;2.37;;
16139;SDS011;8175;49.326;12.690;2023-12-20T07:34:49;3.00;;;2.70;;
16139;SDS011;8175;49.326;12.690;2023-12-20T07:37:14;2.83;;;2.40;;
16139;SDS011;8175;49.326;12.690;2023-12-20T07:39:40;3.53;;;3.23;;
16139;SDS011;8175;49.326;12.690;2023-12-20T07:42:07;3.00;;;2.50;;
16139;SDS011;8175;49.326;12.690;2023-12-20T07:44:33;2.23;;;2.03;;
16139;SDS011;8175;49.326;12.690;2023-12-20T07:46:58;2.60;;;2.40;;
16139;SDS011;8175;49.326;12.690;2023-12-20T07:49:24;2.13;;;1.93;;
16139;SDS011;8175;49.326;12.690;2023-12-20T07:51:50;1.50;;;1.40;;
16139;SDS011;8175;49.326;12.690;2023-12-20T07:54:15;1.60;;;1.50;;
16139;SDS011;8175;49.326;12.690;2023-12-20T07:56:41;1.93;;;1.80;;
16139;SDS011;8175;49.326;12.690;2023-12-20T07:59:07;1.93;;;1.83;;
16139;SDS011;8175;49.326;12.690;2023-12-20T08:01:32;1.70;;;1.60;;
16139;SDS011;8175;49.326;12.690;2023-12-20T08:03:58;2.23;;;2.03;;
16139;SDS011;8175;49.326;12.690;2023-12-20T08:06:24;2.10;;;1.80;;
16139;SDS011;8175;49.326;12.690;2023-12-20T08:08:49;1.93;;;1.83;;
16139;SDS011;8175;49.326;12.690;2023-12-20T08:11:15;1.87;;;1.70;;
16139;SDS011;8175;49.326;12.690;2023-12-20T08:13:41;1.47;;;1.37;;
16139;SDS011;8175;49.326;12.690;2023-12-20T08:16:06;6.03;;;4.77;;
16139;SDS011;8175;49.326;12.690;2023-12-20T08:18:32;2.40;;;2.20;;
16139;SDS011;8175;49.326;12.690;2023-12-20T08:20:58;29.60;;;19.60;;
16139;SDS011;8175;49.326;12.690;2023-12-20T08:23:25;5.43;;;4.93;;
16139;SDS011;8175;49.326;12.690;2023-12-20T08:25:50;2.90;;;2.57;;
16139;SDS011;8175;49.326;12.690;2023-12-20T08:28:16;2.03;;;1.93;;
16139;SDS011;8175;49.326;12.690;2023-12-20T08:30:42;2.90;;;2.37;;
16139;SDS011;8175;49.326;12.690;2023-12-20T08:33:07;2.17;;;1.97;;
16139;SDS011;8175;49.326;12.690;2023-12-20T08:35:37;1.77;;;1.67;;
16139;SDS011;8175;49.326;12.690;2023-12-20T08:38:04;2.70;;;2.50;;
16139;SDS011;8175;49.326;12.690;2023-12-20T08:40:29;2.20;;;2.00;;
16139;SDS011;8175;49.326;12.690;2023-12-20T08:42:55;1.97;;;1.87;;
16139;SDS011;8175;49.326;12.690;2023-12-20T08:45:21;2.40;;;2.20;;
16139;SDS011;8175;49.326;12.690;2023-12-20T08:47:46;2.93;;;2.73;;
16139;SDS011;8175;49.326;12.690;2023-12-20T08:50:12;3.57;;;3.07;;
16139;SDS011;8175;49.326;12.690;2023-12-20T08:52:38;4.13;;;3.53;;
16139;SDS011;8175;49.326;12.690;2023-12-20T08:55:04;3.60;;;3.30;;
16139;SDS011;8175;49.326;12.690;2023-12-20T08:57:30;4.30;;;3.90;;
16139;SDS011;8175;49.326;12.690;2023-12-20T08:59:57;3.97;;;3.63;;
16139;SDS011;8175;49.326;12.690;2023-12-20T09:02:22;3.43;;;3.13;;
16139;SDS011;8175;49.326;12.690;2023-12-20T09:04:48;4.20;;;3.90;;
16139;SDS011;8175;49.326;12.690;2023-12-20T09:07:23;5.77;;;5.17;;
16139;SDS011;8175;49.326;12.690;2023-12-20T09:09:49;3.50;;;3.20;;
16139;SDS011;8175;49.326;12.690;2023-12-20T09:12:16;4.53;;;4.10;;
16139;SDS011;8175;49.326;12.690;2023-12-20T09:14:43;8.37;;;7.37;;
16139;SDS011;8175;49.326;12.690;2023-12-20T09:17:09;5.30;;;4.80;;
16139;SDS011;8175;49.326;12.690;2023-12-20T09:19:36;5.77;;;4.73;;
16139;SDS011;8175;49.326;12.690;2023-12-20T09:22:02;6.33;;;5.20;;
16139;SDS011;8175;49.326;12.690;2023-12-20T09:24:28;5.13;;;4.70;;
16139;SDS011;8175;49.326;12.690;2023-12-20T09:26:55;5.07;;;4.67;;
16139;SDS011;8175;49.326;12.690;2023-12-20T09:29:20;6.23;;;5.63;;
16139;SDS011;8175;49.326;12.690;2023-12-20T09:31:46;6.03;;;4.73;;
16139;SDS011;8175;49.326;12.690;2023-12-20T09:34:13;5.73;;;4.97;;
16139;SDS011;8175;49.326;12.690;2023-12-20T09:36:40;4.50;;;4.10;;
16139;SDS011;8175;49.326;12.690;2023-12-20T09:39:11;5.40;;;4.90;;
16139;SDS011;8175;49.326;12.690;2023-12-20T09:41:38;5.30;;;4.80;;
16139;SDS011;8175;49.326;12.690;2023-12-20T09:44:13;5.40;;;4.90;;
16139;SDS011;8175;49.326;12.690;2023-12-20T09:46:43;5.50;;;3.93;;
16139;SDS011;8175;49.326;12.690;2023-12-20T09:49:10;4.37;;;3.97;;
16139;SDS011;8175;49.326;12.690;2023-12-20T09:51:37;4.03;;;3.50;;
16139;SDS011;8175;49.326;12.690;2023-12-20T09:54:04;4.07;;;3.77;;
16139;SDS011;8175;49.326;12.690;2023-12-20T09:56:30;4.43;;;4.03;;
16139;SDS011;8175;49.326;12.690;2023-12-20T09:58:56;3.63;;;3.33;;
16139;SDS011;8175;49.326;12.690;2023-12-20T10:01:22;4.67;;;3.83;;
16139;SDS011;8175;49.326;12.690;2023-12-20T10:03:48;6.10;;;4.33;;
16139;SDS011;8175;49.326;12.690;2023-12-20T10:06:18;3.90;;;3.60;;
16139;SDS011;8175;49.326;12.690;2023-12-20T10:08:44;3.83;;;3.23;;
16139;SDS011;8175;49.326;12.690;2023-12-20T10:11:09;5.20;;;3.63;;
16139;SDS011;8175;49.326;12.690;2023-12-20T10:13:39;4.23;;;3.23;;
16139;SDS011;8175;49.326;12.690;2023-12-20T10:16:08;3.70;;;3.27;;
16139;SDS011;8175;49.326;12.690;2023-12-20T10:18:34;8.37;;;5.97;;
16139;SDS011;8175;49.326;12.690;2023-12-20T10:21:02;7.27;;;4.83;;
16139;SDS011;8175;49.326;12.690;2023-12-20T10:23:28;4.70;;;4.20;;
16139;SDS011;8175;49.326;12.690;2023-12-20T10:25:58;5.10;;;4.30;;
16139;SDS011;8175;49.326;12.690;2023-12-20T10:28:25;3.40;;;3.10;;
16139;SDS011;8175;49.326;12.690;2023-12-20T10:30:54;3.00;;;2.47;;
16139;SDS011;8175;49.326;12.690;2023-12-20T10:33:25;4.47;;;4.07;;
16139;SDS011;8175;49.326;12.690;2023-12-20T10:35:51;2.77;;;2.57;;
16139;SDS011;8175;49.326;12.690;2023-12-20T10:38:18;3.30;;;2.63;;
16139;SDS011;8175;49.326;12.690;2023-12-20T10:40:44;4.47;;;3.53;;
16139;SDS011;8175;49.326;12.690;2023-12-20T10:43:11;3.73;;;2.87;;
16139;SDS011;8175;49.326;12.690;2023-12-20T10:45:37;3.37;;;3.07;;
16139;SDS011;8175;49.326;12.690;2023-12-20T10:48:03;3.77;;;2.70;;
16139;SDS011;8175;49.326;12.690;2023-12-20T10:50:30;2.30;;;2.10;;
16139;SDS011;8175;49.326;12.690;2023-12-20T10:52:56;2.20;;;2.00;;
16139;SDS011;8175;49.326;12.690;2023-12-20T10:55:25;3.40;;;3.10;;
16139;SDS011;8175;49.326;12.690;2023-12-20T10:57:51;4.67;;;3.13;;
16139;SDS011;8175;49.326;12.690;2023-12-20T11:00:20;3.13;;;2.63;;
16139;SDS011;8175;49.326;12.690;2023-12-20T11:02:48;2.63;;;2.43;;
16139;SDS011;8175;49.326;12.690;2023-12-20T11:08:12;2.30;;;2.10;;
16139;SDS011;8175;49.326;12.690;2023-12-20T11:10:48;1.90;;;1.37;;
16139;SDS011;8175;49.326;12.690;2023-12-20T11:13:40;2.80;;;2.57;;
16139;SDS011;8175;49.326;12.690;2023-12-20T11:16:18;2.37;;;1.57;;
16139;SDS011;8175;49.326;12.690;2023-12-20T11:18:44;2.83;;;1.63;;
16139;SDS011;8175;49.326;12.690;2023-12-20T11:21:10;1.83;;;1.73;;
16139;SDS011;8175;49.326;12.690;2023-12-20T11:23:36;1.90;;;1.80;;
16139;SDS011;8175;49.326;12.690;2023-12-20T11:26:02;1.63;;;1.43;;
16139;SDS011;8175;49.326;12.690;2023-12-20T11:28:28;1.50;;;1.40;;
16139;SDS011;8175;49.326;12.690;2023-12-20T11:30:57;1.67;;;1.57;;
16139;SDS011;8175;49.326;12.690;2023-12-20T11:33:25;1.37;;;1.27;;
16139;SDS011;8175;49.326;12.690;2023-12-20T11:35:57;2.23;;;1.77;;
16139;SDS011;8175;49.326;12.690;2023-12-20T11:38:25;2.17;;;1.53;;
16139;SDS011;8175;49.326;12.690;2023-12-20T11:40:50;1.63;;;1.17;;
16139;SDS011;8175;49.326;12.690;2023-12-20T11:46:07;2.40;;;1.37;;
16139;SDS011;8175;49.326;12.690;2023-12-20T11:48:35;1.63;;;1.43;;
16139;SDS011;8175;49.326;12.690;2023-12-20T11:51:08;1.90;;;1.47;;
16139;SDS011;8175;49.326;12.690;2023-12-20T11:53:35;3.57;;;1.87;;
16139;SDS011;8175;49.326;12.690;2023-12-20T11:56:02;2.40;;;1.60;;
16139;SDS011;8175;49.326;12.690;2023-12-20T11:58:28;3.00;;;1.67;;
16139;SDS011;8175;49.326;12.690;2023-12-20T12:00:55;3.13;;;1.93;;
16139;SDS011;8175;49.326;12.690;2023-12-20T12:03:21;1.70;;;1.53;;
16139;SDS011;8175;49.326;12.690;2023-12-20T12:05:48;3.90;;;2.10;;
16139;SDS011;8175;49.326;12.690;2023-12-20T12:08:14;2.90;;;1.87;;
16139;SDS011;8175;49.326;12.690;2023-12-20T12:10:40;4.80;;;2.30;;
16139;SDS011;8175;49.326;12.690;2023-12-20T12:13:06;1.83;;;1.50;;
16139;SDS011;8175;49.326;12.690;2023-12-20T12:15:32;3.00;;;1.93;;
16139;SDS011;8175;49.326;12.690;2023-12-20T12:17:57;3.27;;;1.70;;
16139;SDS011;8175;49.326;12.690;2023-12-20T12:20:24;3.13;;;2.30;;
16139;SDS011;8175;49.326;12.690;2023-12-20T12:25:25;15.53;;;7.90;;
16139;SDS011;8175;49.326;12.690;2023-12-20T12:27:51;8.33;;;4.67;;
16139;SDS011;8175;49.326;12.690;2023-12-20T12:30:17;4.83;;;2.23;;
16139;SDS011;8175;49.326;12.690;2023-12-20T12:32:43;4.27;;;2.27;;
16139;SDS011;8175;49.326;12.690;2023-12-20T12:35:10;2.50;;;2.30;;
16139;SDS011;8175;49.326;12.690;2023-12-20T12:37:37;3.17;;;1.90;;
16139;SDS011;8175;49.326;12.690;2023-12-20T12:40:09;4.67;;;1.90;;
16139;SDS011;8175;49.326;12.690;2023-12-20T12:42:36;2.13;;;1.40;;
16139;SDS011;8175;49.326;12.690;2023-12-20T12:45:02;2.67;;;1.87;;
16139;SDS011;8175;49.326;12.690;2023-12-20T12:47:29;1.73;;;1.30;;
16139;SDS011;8175;49.326;12.690;2023-12-20T12:49:55;2.60;;;1.30;;
16139;SDS011;8175;49.326;12.690;2023-12-20T12:52:21;2.80;;;1.40;;
16139;SDS011;8175;49.326;12.690;2023-12-20T12:54:47;3.17;;;1.63;;
16139;SDS011;8175;49.326;12.690;2023-12-20T12:57:14;2.37;;;1.50;;
16139;SDS011;8175;49.326;12.690;2023-12-20T12:59:41;1.83;;;1.17;;
16139;SDS011;8175;49.326;12.690;2023-12-20T13:02:07;2.03;;;1.50;;
16139;SDS011;8175;49.326;12.690;2023-12-20T13:04:33;3.47;;;1.30;;
16139;SDS011;8175;49.326;12.690;2023-12-20T13:06:59;3.23;;;1.30;;
16139;SDS011;8175;49.326;12.690;2023-12-20T13:09:25;2.43;;;1.87;;
16139;SDS011;8175;49.326;12.690;2023-12-20T13:11:50;3.00;;;1.50;;
16139;SDS011;8175;49.326;12.690;2023-12-20T13:14:16;2.87;;;1.57;;
16139;SDS011;8175;49.326;12.690;2023-12-20T13:16:42;8.20;;;4.60;;
16139;SDS011;8175;49.326;12.690;2023-12-20T13:19:07;14.13;;;6.53;;
16139;SDS011;8175;49.326;12.690;2023-12-20T13:21:33;4.07;;;2.50;;
16139;SDS011;8175;49.326;12.690;2023-12-20T13:23:59;3.97;;;2.40;;
16139;SDS011;8175;49.326;12.690;2023-12-20T13:26:25;4.27;;;1.60;;
16139;SDS011;8175;49.326;12.690;2023-12-20T13:28:50;2.60;;;1.13;;
16139;SDS011;8175;49.326;12.690;2023-12-20T13:31:16;3.27;;;1.30;;
16139;SDS011;8175;49.326;12.690;2023-12-20T13:33:41;4.70;;;2.20;;
16139;SDS011;8175;49.326;12.690;2023-12-20T13:36:07;1.00;;;0.87;;
16139;SDS011;8175;49.326;12.690;2023-12-20T13:38:33;2.50;;;1.40;;
16139;SDS011;8175;49.326;12.690;2023-12-20T13:40:59;1.87;;;1.33;;
16139;SDS011;8175;49.326;12.690;2023-12-20T13:43:25;7.63;;;2.70;;
16139;SDS011;8175;49.326;12.690;2023-12-20T13:45:50;4.67;;;1.40;;
16139;SDS011;8175;49.326;12.690;2023-12-20T13:48:16;2.27;;;1.43;;
16139;SDS011;8175;49.326;12.690;2023-12-20T13:50:42;5.60;;;2.90;;
16139;SDS011;8175;49.326;12.690;2023-12-20T13:53:07;1.90;;;1.70;;
16139;SDS011;8175;49.326;12.690;2023-12-20T13:55:33;2.70;;;1.80;;
16139;SDS011;8175;49.326;12.690;2023-12-20T13:57:58;3.33;;;1.20;;
16139;SDS011;8175;49.326;12.690;2023-12-20T14:00:24;4.60;;;1.77;;
16139;SDS011;8175;49.326;12.690;2023-12-20T14:02:50;4.50;;;1.40;;
16139;SDS011;8175;49.326;12.690;2023-12-20T14:05:16;1.90;;;1.70;;
16139;SDS011;8175;49.326;12.690;2023-12-20T14:07:45;1.60;;;1.50;;
16139;SDS011;8175;49.326;12.690;2023-12-20T14:10:11;3.07;;;1.87;;
16139;SDS011;8175;49.326;12.690;2023-12-20T14:12:38;2.97;;;2.20;;
16139;SDS011;8175;49.326;12.690;2023-12-20T14:15:04;11.60;;;4.80;;
16139;SDS011;8175;49.326;12.690;2023-12-20T14:17:34;2.93;;;2.37;;
16139;SDS011;8175;49.326;12.690;2023-12-20T14:20:00;6.40;;;2.13;;
16139;SDS011;8175;49.326;12.690;2023-12-20T14:22:25;1.73;;;1.60;;
16139;SDS011;8175;49.326;12.690;2023-12-20T14:24:54;3.87;;;1.90;;
16139;SDS011;8175;49.326;12.690;2023-12-20T14:27:19;6.80;;;2.70;;
16139;SDS011;8175;49.326;12.690;2023-12-20T14:29:48;3.83;;;2.20;;
16139;SDS011;8175;49.326;12.690;2023-12-20T14:32:15;3.80;;;1.93;;
16139;SDS011;8175;49.326;12.690;2023-12-20T14:34:41;2.00;;;1.80;;
16139;SDS011;8175;49.326;12.690;2023-12-20T14:37:07;3.07;;;1.87;;
16139;SDS011;8175;49.326;12.690;2023-12-20T14:39:32;2.20;;;1.53;;
16139;SDS011;8175;49.326;12.690;2023-12-20T14:41:58;7.70;;;2.60;;
16139;SDS011;8175;49.326;12.690;2023-12-20T14:44:24;2.50;;;1.57;;